createdAt,value
2023-03-22T00:00:50.740Z,38
2023-03-22T00:03:52.868Z,40.1
2023-03-22T00:06:54.694Z,38.9
2023-03-22T00:09:56.660Z,37.7
2023-03-22T00:12:58.596Z,33.2
2023-03-22T00:16:00.568Z,34.4
2023-03-22T00:19:02.670Z,36
2023-03-22T00:22:04.484Z,32.9
2023-03-22T00:25:06.440Z,32.1
2023-03-22T00:28:08.401Z,33.7
2023-03-22T00:31:10.398Z,31.4
2023-03-22T00:34:12.350Z,29.8
2023-03-22T00:37:14.295Z,30.3
2023-03-22T00:40:18.251Z,27.6
2023-03-22T00:43:18.229Z,28.5
2023-03-22T00:46:20.413Z,25.1
2023-03-22T00:49:22.147Z,21
2023-03-22T00:52:24.114Z,24.5
2023-03-22T00:55:26.086Z,26.2
2023-03-22T00:58:28.054Z,28.6
2023-03-22T01:01:30.100Z,24.1
2023-03-22T01:04:32.025Z,21.6
2023-03-22T01:07:33.997Z,19.6
2023-03-22T01:10:35.936Z,19.1
2023-03-22T01:13:37.911Z,22.5
2023-03-22T01:16:39.968Z,21.9
2023-03-22T01:19:41.840Z,17.2
2023-03-22T01:22:43.790Z,20.3
2023-03-22T01:25:45.784Z,16.7
2023-03-22T01:28:47.743Z,14.7
2023-03-22T01:31:49.713Z,15.8
2023-03-22T01:34:51.668Z,17.4
2023-03-22T01:37:53.601Z,15.5
2023-03-22T01:40:55.608Z,14.7
2023-03-22T01:43:57.537Z,16.3
2023-03-22T01:46:59.555Z,15
2023-03-22T01:50:01.461Z,14.7
2023-03-22T01:53:03.415Z,14.3
2023-03-22T01:56:05.410Z,13.4
2023-03-22T01:59:07.385Z,15.4
2023-03-22T02:02:09.319Z,15.2
2023-03-22T02:05:11.271Z,14.8
2023-03-22T02:08:13.224Z,16.6
2023-03-22T02:11:15.190Z,22.3
2023-03-22T02:14:17.166Z,14.7
2023-03-22T02:17:19.131Z,16.5
2023-03-22T02:20:21.145Z,17.6
2023-03-22T02:23:23.112Z,16.1
2023-03-22T02:26:24.998Z,14.5
2023-03-22T02:29:27.008Z,13.7
2023-03-22T02:32:28.930Z,13.4
2023-03-22T02:35:30.930Z,14.2
2023-03-22T02:38:32.874Z,14.2
2023-03-22T02:41:34.826Z,14.6
2023-03-22T02:44:36.809Z,13
2023-03-22T02:47:38.762Z,15.1
2023-03-22T02:50:40.933Z,14.7
2023-03-22T02:53:42.690Z,14.3
2023-03-22T02:56:44.649Z,15.9
2023-03-22T02:59:46.625Z,16.6
2023-03-22T03:02:48.577Z,14.7
2023-03-22T03:05:50.577Z,16.8
2023-03-22T03:08:52.560Z,16
2023-03-22T03:11:54.491Z,14.3
2023-03-22T03:14:56.448Z,15.8
2023-03-22T03:17:58.549Z,15.3
2023-03-22T03:21:00.429Z,15
2023-03-22T03:24:02.366Z,17.3
2023-03-22T03:27:04.317Z,15.9
2023-03-22T03:30:06.245Z,16.2
2023-03-22T03:33:08.195Z,14.7
2023-03-22T03:36:10.188Z,14.1
2023-03-22T03:39:12.148Z,14.6
2023-03-22T03:42:14.141Z,13.6
2023-03-22T03:45:16.086Z,14.3
2023-03-22T03:48:18.142Z,18.7
2023-03-22T03:51:20.042Z,15.8
2023-03-22T03:54:21.995Z,14.9
2023-03-22T03:57:23.967Z,15.9
2023-03-22T04:00:25.894Z,14.1
2023-03-22T04:03:27.929Z,18.5
2023-03-22T04:06:29.862Z,17.1
2023-03-22T04:09:31.893Z,17.9
2023-03-22T04:12:33.926Z,15.1
2023-03-22T04:15:35.898Z,18.4
2023-03-22T04:18:37.851Z,17.8
2023-03-22T04:21:39.810Z,15.8
2023-03-22T04:24:41.785Z,15.3
2023-03-22T04:27:43.749Z,15.9
2023-03-22T04:30:45.843Z,17.5
2023-03-22T04:33:47.671Z,17.4
2023-03-22T04:36:51.720Z,17.3
2023-03-22T04:39:51.626Z,20.6
2023-03-22T04:42:53.597Z,18.4
2023-03-22T04:45:55.598Z,18.5
2023-03-22T04:48:57.504Z,17.7
2023-03-22T04:51:59.489Z,18.1
2023-03-22T04:55:01.452Z,18.1
2023-03-22T04:58:03.530Z,18.7
2023-03-22T05:01:05.467Z,19.1
2023-03-22T05:04:07.335Z,21.7
2023-03-22T05:07:09.368Z,19.7
2023-03-22T05:10:11.300Z,22
2023-03-22T05:13:13.266Z,22.2
2023-03-22T05:16:15.304Z,21
2023-03-22T05:19:17.195Z,30
2023-03-22T05:22:19.144Z,27.5
2023-03-22T05:25:21.135Z,26
2023-03-22T05:28:23.108Z,30.6
2023-03-22T05:31:25.125Z,26.6
2023-03-22T05:34:27.115Z,26.7
2023-03-22T05:37:29.138Z,33.4
2023-03-22T05:40:31.079Z,24.7
2023-03-22T05:43:33.305Z,30
2023-03-22T05:46:35.125Z,28.6
2023-03-22T05:49:37.035Z,27.1
2023-03-22T05:52:39.011Z,27
2023-03-22T05:55:40.998Z,21.9
2023-03-22T05:58:42.980Z,24.2
2023-03-22T06:01:44.976Z,22.7
2023-03-22T06:04:46.904Z,21.1
2023-03-22T06:07:48.851Z,21.7
2023-03-22T06:10:50.841Z,22.4
2023-03-22T06:13:53.001Z,23.6
2023-03-22T06:16:54.843Z,24
2023-03-22T06:19:56.783Z,23.2
2023-03-22T06:22:58.702Z,21.2
2023-03-22T06:26:00.676Z,22.8
2023-03-22T06:29:02.641Z,22.7
2023-03-22T06:32:04.601Z,20.7
2023-03-22T06:35:06.641Z,22.6
2023-03-22T06:38:08.531Z,19.8
2023-03-22T06:41:10.500Z,19.6
2023-03-22T06:44:12.470Z,18.6
2023-03-22T06:47:14.456Z,17.8
2023-03-22T06:50:19.453Z,14.2
2023-03-22T06:53:21.430Z,15.3
2023-03-22T06:56:23.475Z,15.2
2023-03-22T06:59:28.465Z,14.6
2023-03-22T07:02:30.408Z,14.4
2023-03-22T07:05:32.405Z,13.6
2023-03-22T07:08:34.371Z,13.6
2023-03-22T07:11:36.315Z,12.3
2023-03-22T07:14:38.311Z,11.2
2023-03-22T07:17:40.308Z,15.5
2023-03-22T07:20:42.614Z,9.8
2023-03-22T07:23:44.245Z,9.1
2023-03-22T07:26:46.200Z,10.9
2023-03-22T07:29:48.177Z,10.7
2023-03-22T07:32:50.290Z,10
2023-03-22T07:35:52.425Z,11.3
2023-03-22T07:38:54.308Z,9.5
2023-03-22T07:41:56.177Z,10.6
2023-03-22T07:45:00.999Z,9.3
2023-03-22T07:48:02.965Z,9.2
2023-03-22T07:51:04.899Z,12.4
2023-03-22T07:54:07.777Z,10.4
2023-03-22T07:57:08.855Z,10.7
2023-03-22T08:00:10.798Z,11.7
2023-03-22T08:03:12.798Z,10.6
2023-03-22T08:06:14.731Z,8.8
2023-03-22T08:09:16.688Z,8.5
2023-03-22T08:12:18.626Z,10.3
2023-03-22T08:15:22.519Z,9
2023-03-22T08:18:22.575Z,12.7
2023-03-22T08:21:24.535Z,5.8
2023-03-22T08:24:26.505Z,7.2
2023-03-22T08:27:28.425Z,8.3
2023-03-22T08:30:30.375Z,6.8
2023-03-22T08:33:32.360Z,7.2
2023-03-22T08:36:34.318Z,6.7
2023-03-22T08:39:36.308Z,7
2023-03-22T08:42:38.280Z,8.1
2023-03-22T08:45:40.547Z,7.2
2023-03-22T08:48:42.229Z,6.6
2023-03-22T08:51:44.162Z,6.7
2023-03-22T08:54:46.116Z,6
2023-03-22T08:57:48.072Z,7.9
2023-03-22T09:00:50.370Z,6.1
2023-03-22T09:03:52.204Z,5.5
2023-03-22T09:06:54.106Z,7.8
2023-03-22T09:09:56.076Z,5.5
2023-03-22T09:12:58.008Z,4.7
2023-03-22T09:16:00.007Z,6.3
2023-03-22T09:19:01.895Z,4.9
2023-03-22T09:22:03.862Z,5.5
2023-03-22T09:25:05.883Z,4.8
2023-03-22T09:28:07.885Z,7.3
2023-03-22T09:31:09.874Z,6.6
2023-03-22T09:34:11.736Z,3.6
2023-03-22T09:37:13.700Z,6.6
2023-03-22T09:40:15.688Z,4.8
2023-03-22T09:43:17.654Z,4.6
2023-03-22T09:46:19.646Z,4.6
2023-03-22T09:49:21.549Z,6.1
2023-03-22T09:52:23.655Z,5.3
2023-03-22T09:55:25.488Z,2.5
2023-03-22T09:58:27.487Z,2.8
2023-03-22T10:01:29.622Z,2.6
2023-03-22T10:04:31.535Z,3.7
2023-03-22T10:07:33.412Z,4.8
2023-03-22T10:10:35.395Z,4.5
2023-03-22T10:13:57.665Z,2.1
2023-03-22T10:16:39.576Z,3.3
2023-03-22T10:19:41.553Z,5.4
2023-03-22T10:22:43.522Z,5.4
2023-03-22T10:25:45.449Z,3.9
2023-03-22T10:28:47.421Z,4
2023-03-22T10:31:49.448Z,2.2
2023-03-22T10:34:51.381Z,3.8
2023-03-22T10:37:53.379Z,1.9
2023-03-22T10:40:55.310Z,2.4
2023-03-22T10:43:57.288Z,3.3
2023-03-22T10:46:59.253Z,2.1
2023-03-22T10:50:01.180Z,2
2023-03-22T10:53:03.165Z,2.3
2023-03-22T10:56:05.091Z,2.8
2023-03-22T10:59:07.060Z,1.8
2023-03-22T11:02:09.241Z,3.7
2023-03-22T11:05:10.982Z,2.2
2023-03-22T11:08:12.951Z,3.3
2023-03-22T11:11:14.948Z,2
2023-03-22T11:14:16.889Z,1.6
2023-03-22T11:17:18.820Z,1.9
2023-03-22T11:20:20.807Z,1.7
2023-03-22T11:23:22.732Z,2
2023-03-22T11:29:26.687Z,2.2
2023-03-22T11:32:28.634Z,2.7
2023-03-22T11:35:30.690Z,1.4
2023-03-22T11:38:32.851Z,1.4
2023-03-22T11:41:34.529Z,2.3
2023-03-22T11:44:36.462Z,1.9
2023-03-22T11:47:38.511Z,2.3
2023-03-22T11:50:40.706Z,2.5
2023-03-22T11:53:42.414Z,1.4
2023-03-22T11:56:44.376Z,2.6
2023-03-22T11:59:46.358Z,2.3
2023-03-22T12:02:48.368Z,4.5
2023-03-22T12:05:50.287Z,1.2
2023-03-22T12:08:52.242Z,1.9
2023-03-22T12:11:54.182Z,1.9
2023-03-22T12:14:56.188Z,2.5
2023-03-22T12:17:58.231Z,1.3
2023-03-22T12:21:00.067Z,2
2023-03-22T12:24:02.054Z,1.3
2023-03-22T12:27:04.042Z,2.4
2023-03-22T12:30:05.994Z,7.7
2023-03-22T12:33:08.057Z,1.5
2023-03-22T12:36:09.979Z,3.3
2023-03-22T12:39:11.903Z,2.2
2023-03-22T12:42:13.959Z,1.9
2023-03-22T12:45:15.923Z,1.6
2023-03-22T12:48:17.938Z,2.7
2023-03-22T12:51:19.864Z,1.7
2023-03-22T12:54:21.825Z,1.7
2023-03-22T12:57:23.777Z,1.2
2023-03-22T13:00:25.730Z,1.8
2023-03-22T13:03:27.816Z,2.9
2023-03-22T13:06:29.650Z,1.4
2023-03-22T13:09:31.609Z,1.7
2023-03-22T13:12:33.572Z,2.5
2023-03-22T13:15:41.603Z,1.8
2023-03-22T13:18:37.557Z,1.4
2023-03-22T13:21:39.497Z,1.9
2023-03-22T13:24:41.430Z,2.1
2023-03-22T13:27:43.421Z,2.3
2023-03-22T13:30:45.365Z,1.3
2023-03-22T13:33:47.321Z,1.3
2023-03-22T13:36:49.285Z,2.4
2023-03-22T13:39:51.252Z,1.5
2023-03-22T13:42:53.214Z,2.5
2023-03-22T13:45:55.239Z,1.3
2023-03-22T13:48:58.445Z,2.3
2023-03-22T13:51:59.117Z,0.9
2023-03-22T13:55:01.091Z,0.9
2023-03-22T13:58:03.045Z,1.6
2023-03-22T14:01:05.047Z,2.1
2023-03-22T14:04:06.968Z,1.3
2023-03-22T14:07:08.955Z,2.6
2023-03-22T14:10:10.928Z,1.3
2023-03-22T14:13:12.834Z,0.9
2023-03-22T14:16:14.878Z,1.7
2023-03-22T14:19:16.887Z,1.2
2023-03-22T14:52:38.339Z,2
2023-03-22T14:55:40.544Z,1.4
2023-03-22T14:58:42.267Z,1.8
2023-03-22T15:01:44.331Z,3.2
2023-03-22T15:04:46.220Z,1.2
2023-03-22T15:07:48.220Z,1
2023-03-22T15:10:50.107Z,2.8
2023-03-22T15:13:52.068Z,1.5
2023-03-22T15:16:54.032Z,1.6
2023-03-22T15:19:56.014Z,1.3
2023-03-22T15:22:57.989Z,0.9
2023-03-22T15:25:59.969Z,1.1
2023-03-22T15:29:01.952Z,2.1
2023-03-22T15:32:03.973Z,3
2023-03-22T15:35:05.848Z,2.6
2023-03-22T15:38:07.801Z,4.8
2023-03-22T15:41:09.813Z,2.4
2023-03-22T15:44:11.754Z,2.1
2023-03-22T15:47:13.728Z,3.3
2023-03-22T15:50:15.732Z,1.6
2023-03-22T15:53:17.664Z,2
2023-03-22T15:56:19.808Z,1.5
2023-03-22T15:59:21.627Z,2.9
2023-03-22T16:02:23.605Z,1.3
2023-03-22T16:05:25.519Z,2.2
2023-03-22T16:08:27.480Z,1.7
2023-03-22T16:11:29.500Z,1.6
2023-03-22T16:14:31.462Z,1.5
2023-03-22T16:17:33.408Z,2.5
2023-03-22T16:20:35.386Z,1.5
2023-03-22T16:23:37.356Z,2.2
2023-03-22T16:26:39.278Z,2.5
2023-03-22T16:29:41.273Z,3
2023-03-22T16:32:43.187Z,2.4
2023-03-22T16:35:45.194Z,1.8
2023-03-22T16:38:47.153Z,3.5
2023-03-22T16:41:49.099Z,0.9
2023-03-22T16:44:56.126Z,2.4
2023-03-22T16:47:53.019Z,1.4
2023-03-22T16:50:57.897Z,2.2
2023-03-22T16:53:59.897Z,2.8
2023-03-22T16:57:01.849Z,2.3
2023-03-22T17:00:03.848Z,1.6
2023-03-22T17:03:05.837Z,2.1
2023-03-22T17:06:07.789Z,1.3
2023-03-22T17:09:09.717Z,1.4
2023-03-22T17:12:11.695Z,2.3
2023-03-22T17:15:13.618Z,1.6
2023-03-22T17:18:15.583Z,2.5
2023-03-22T17:21:17.542Z,2.6
2023-03-22T17:24:19.522Z,3.3
2023-03-22T17:27:21.606Z,1.8
2023-03-22T17:30:23.635Z,3.3
2023-03-22T17:33:25.577Z,2.9
2023-03-22T17:36:27.511Z,2.1
2023-03-22T17:40:00.586Z,2.2
2023-03-22T17:42:31.457Z,2.5
2023-03-22T17:45:51.468Z,2.2
2023-03-22T17:48:35.347Z,1.5
2023-03-22T17:51:40.153Z,2.1
2023-03-22T17:52:14.865Z,1.9
2023-03-22T17:52:46.831Z,2.4
2023-03-22T17:53:29.077Z,1.7
2023-03-22T17:54:16.505Z,3.6
2023-03-22T17:54:52.380Z,3
2023-03-22T18:00:26.634Z,2.3
2023-03-22T18:03:28.613Z,2.3
2023-03-22T18:06:30.662Z,2.8
2023-03-22T18:09:43.035Z,2.2
2023-03-22T18:12:34.873Z,3.1
2023-03-22T18:15:36.843Z,4.4
2023-03-22T18:18:38.794Z,5.3
2023-03-22T18:21:40.723Z,2.4
2023-03-22T18:24:42.709Z,3.9
2023-03-22T18:27:47.721Z,2.6
2023-03-22T18:30:46.709Z,4
2023-03-22T18:33:48.609Z,3.3
2023-03-22T18:36:50.589Z,2.5
2023-03-22T18:40:13.536Z,3.3
2023-03-22T18:42:54.530Z,3.7
2023-03-22T18:48:58.441Z,3.1
2023-03-22T18:52:31.938Z,3.1
2023-03-22T18:55:12.292Z,3.6
2023-03-22T18:58:04.493Z,2.4
2023-03-22T19:01:06.692Z,1.7
2023-03-22T19:04:08.893Z,2
2023-03-22T19:07:17.730Z,5
2023-03-22T19:10:16.010Z,1.6
2023-03-22T19:13:18.185Z,2.7
2023-03-22T19:16:22.911Z,2
2023-03-22T19:19:25.019Z,3.3
2023-03-22T19:22:27.203Z,1.8
2023-03-22T19:25:32.010Z,2.3
2023-03-22T19:28:34.477Z,1.8
2023-03-22T19:31:36.014Z,1.7
2023-03-22T19:34:38.026Z,1.5
2023-03-22T19:37:42.769Z,2.1
2023-03-22T19:43:49.818Z,1.8
2023-03-22T19:46:54.916Z,1.8
2023-03-22T19:49:56.784Z,1.9
2023-03-22T19:52:58.760Z,1.6
2023-03-22T19:56:02.407Z,1.5
2023-03-22T19:59:03.396Z,2
2023-03-22T20:02:04.907Z,2.4
2023-03-22T20:05:14.910Z,2.1
2023-03-22T20:08:10.372Z,2
2023-03-22T20:14:12.934Z,12.7
2023-03-22T20:20:17.058Z,2
2023-03-22T20:23:22.061Z,2
2023-03-22T20:26:24.364Z,1.5
2023-03-22T20:29:26.228Z,1.5
2023-03-22T20:32:28.203Z,2
2023-03-22T20:35:30.139Z,1.6
2023-03-22T20:38:32.116Z,1.2
2023-03-22T20:41:35.538Z,1.9
2023-03-22T20:44:36.104Z,1.7
2023-03-22T20:47:38.099Z,0.8
2023-03-22T20:50:40.060Z,2
2023-03-22T20:53:42.008Z,1.7
2023-03-22T20:56:43.991Z,2
2023-03-22T20:59:45.948Z,1.7
2023-03-22T21:02:47.889Z,1.5
2023-03-22T21:05:49.865Z,2.2
2023-03-22T21:08:51.798Z,2
2023-03-22T21:11:53.761Z,1.9
2023-03-22T21:14:55.734Z,3.5
2023-03-22T21:17:57.697Z,1.6
2023-03-22T21:20:59.678Z,1.6
2023-03-22T21:24:01.637Z,1.3
2023-03-22T21:27:03.628Z,1.2
2023-03-22T21:30:05.704Z,1.6
2023-03-22T21:33:07.615Z,1.5
2023-03-22T21:36:09.668Z,1
2023-03-22T21:39:11.559Z,1.6
2023-03-22T21:42:13.537Z,1.2
2023-03-22T21:45:15.529Z,3.1
2023-03-22T21:48:17.508Z,2.2
2023-03-22T21:51:19.446Z,1.6
2023-03-22T21:54:21.402Z,1.6
2023-03-22T21:57:23.382Z,0.9
2023-03-22T22:00:25.324Z,2.6
2023-03-22T22:03:27.335Z,2
2023-03-22T22:06:29.315Z,2.1
2023-03-22T22:09:31.246Z,2.2
2023-03-22T22:12:33.193Z,1.4
2023-03-22T22:15:35.205Z,0.7
2023-03-22T22:18:37.155Z,1.1
2023-03-22T22:21:39.150Z,2.4
2023-03-22T22:24:41.067Z,2.6
2023-03-22T22:27:43.042Z,1.2
2023-03-22T22:30:45.029Z,1.2
2023-03-22T22:33:46.990Z,1.2
2023-03-22T22:36:48.921Z,0.9
2023-03-22T22:39:50.890Z,2
2023-03-22T22:42:52.843Z,2.2
2023-03-22T22:45:54.835Z,1.6
2023-03-22T22:48:56.763Z,1.7
2023-03-22T22:51:58.738Z,1.3
2023-03-22T22:55:00.682Z,0.9
2023-03-22T22:58:02.708Z,1.9
2023-03-22T23:01:04.634Z,0.7
2023-03-22T23:04:06.807Z,1.3
2023-03-22T23:07:08.580Z,1.2
2023-03-22T23:10:10.541Z,1.6
2023-03-22T23:13:12.468Z,1
2023-03-22T23:16:14.480Z,1.9
2023-03-22T23:19:16.430Z,2.3
2023-03-22T23:22:18.331Z,1.5
2023-03-22T23:25:20.293Z,1.6
2023-03-22T23:28:22.248Z,2.8
2023-03-22T23:31:24.223Z,1.4
2023-03-22T23:34:26.200Z,1.2
2023-03-22T23:37:28.159Z,2.6
2023-03-22T23:40:30.154Z,1.2
2023-03-22T23:43:32.128Z,1.5
2023-03-22T23:46:34.045Z,1.2
2023-03-22T23:49:36.058Z,2
2023-03-22T23:52:38.040Z,1.8
2023-03-22T23:55:40.190Z,1.7
2023-03-22T23:58:41.972Z,1.7
